Time;durP1;ratioP1;P1;durP2;ratioP2;P2;SDS_P1;SDS_P2;PMS_P1;PMS_P2;Temp;Humidity;BMP_temperature;BMP_pressure;BME280_temperature;BME280_humidity;BME280_pressure;Samples;Min_cycle;Max_cycle;Signal;HPM_P1;HPM_P2
2022/09/21 00:01:47;;;;;;;16.25;7.40;;;11.40;99.90;;;;;;4166434;28;20732;-91
2022/09/21 00:03:56;;;;;;;11.48;7.50;;;11.40;99.90;;;;;;4149895;28;20173;-91
2022/09/21 00:06:13;;;;;;;15.15;8.30;;;11.30;99.90;;;;;;4149588;28;20533;-91
2022/09/21 00:08:14;;;;;;;16.10;8.02;;;11.30;99.90;;;;;;4165901;28;20168;-92
2022/09/21 00:10:15;;;;;;;20.27;8.90;;;11.30;99.90;;;;;;4166225;28;20183;-91
2022/09/21 00:12:17;;;;;;;15.95;8.80;;;11.20;99.90;;;;;;4149896;28;20215;-90
2022/09/21 00:14:18;;;;;;;18.20;8.57;;;11.20;99.90;;;;;;4166158;28;20172;-91
2022/09/21 00:16:20;;;;;;;14.35;7.72;;;11.20;99.90;;;;;;4182594;28;20629;-92
2022/09/21 00:18:21;;;;;;;11.30;7.35;;;11.20;99.90;;;;;;4149625;28;20169;-92
2022/09/21 00:20:23;;;;;;;15.93;8.20;;;11.20;99.90;;;;;;4166206;28;20652;-92
2022/09/21 00:22:24;;;;;;;19.85;8.73;;;11.10;99.90;;;;;;4166140;28;20740;-91
2022/09/21 00:24:26;;;;;;;15.93;8.55;;;11.10;99.90;;;;;;4165975;28;20243;-91
2022/09/21 00:26:27;;;;;;;15.32;8.23;;;11.10;99.90;;;;;;4149564;28;20196;-91
2022/09/21 00:28:28;;;;;;;18.42;7.72;;;11.00;99.90;;;;;;4166146;28;20634;-92
2022/09/21 00:30:29;;;;;;;13.63;7.35;;;10.90;99.90;;;;;;4166020;28;20195;-92
2022/09/21 00:32:30;;;;;;;14.25;6.43;;;10.80;99.90;;;;;;4149646;28;20168;-92
2022/09/21 00:34:31;;;;;;;23.63;7.28;;;10.70;99.90;;;;;;4149470;28;20203;-91
2022/09/21 00:36:33;;;;;;;14.77;6.68;;;10.70;99.90;;;;;;4182087;28;20215;-92
2022/09/21 00:38:34;;;;;;;11.93;7.40;;;10.70;99.90;;;;;;4165305;28;20684;-93
2022/09/21 00:40:35;;;;;;;13.93;7.45;;;10.90;99.90;;;;;;4182317;28;20603;-92
2022/09/21 00:42:36;;;;;;;19.45;9.25;;;10.90;99.90;;;;;;4165762;28;20166;-92
2022/09/21 00:44:37;;;;;;;19.83;11.15;;;11.20;99.90;;;;;;4149359;28;20665;-91
2022/09/21 00:46:39;;;;;;;18.92;11.45;;;11.40;99.90;;;;;;4165523;28;20179;-90
2022/09/21 00:48:40;;;;;;;23.73;12.13;;;11.30;99.90;;;;;;4149196;28;20192;-91
2022/09/21 00:50:45;;;;;;;20.52;11.43;;;11.10;99.90;;;;;;4165566;28;20180;-90
2022/09/21 00:52:53;;;;;;;18.83;10.77;;;11.10;99.90;;;;;;4165619;28;20176;-91
2022/09/21 00:54:57;;;;;;;14.52;9.02;;;11.10;99.90;;;;;;4165522;28;20547;-91
2022/09/21 00:57:01;;;;;;;19.35;9.23;;;11.10;99.90;;;;;;4165715;28;20188;-91
2022/09/21 00:59:03;;;;;;;14.18;8.35;;;11.00;99.90;;;;;;4165636;28;20200;-90
2022/09/21 01:01:04;;;;;;;19.15;7.47;;;11.00;99.90;;;;;;4165672;28;20175;-89
2022/09/21 01:03:07;;;;;;;16.95;8.23;;;11.10;99.90;;;;;;4149122;28;20661;-91
2022/09/21 01:05:09;;;;;;;14.00;8.15;;;11.00;99.90;;;;;;4148826;28;20196;-91
2022/09/21 01:07:17;;;;;;;11.80;7.10;;;10.80;99.90;;;;;;4164371;28;20202;-91
2022/09/21 01:09:18;;;;;;;12.00;7.15;;;10.60;99.90;;;;;;4164924;28;20223;-91
2022/09/21 01:11:24;;;;;;;16.65;7.93;;;10.40;99.90;;;;;;4148862;28;20168;-91
2022/09/21 01:13:43;;;;;;;13.98;7.10;;;10.40;99.90;;;;;;4165129;28;20184;-91
2022/09/21 01:16:04;;;;;;;11.25;7.50;;;10.30;99.90;;;;;;4181538;28;20619;-91
2022/09/21 01:18:26;;;;;;;15.60;7.45;;;10.10;99.90;;;;;;4165054;28;20187;-91
2022/09/21 01:21:07;;;;;;;15.13;7.72;;;10.20;99.90;;;;;;4165303;28;20172;-90
2022/09/21 01:23:32;;;;;;;11.40;7.60;;;10.20;99.90;;;;;;4165162;28;20628;-90
2022/09/21 01:25:36;;;;;;;13.82;8.38;;;10.40;99.90;;;;;;4181469;28;20199;-91
2022/09/21 01:27:42;;;;;;;15.85;8.98;;;10.30;99.90;;;;;;4164920;28;20225;-91
2022/09/21 01:29:58;;;;;;;14.07;9.32;;;10.40;99.90;;;;;;4181530;28;20651;-92
2022/09/21 01:32:05;;;;;;;14.23;8.20;;;10.40;99.90;;;;;;4164992;28;20168;-91
2022/09/21 01:34:16;;;;;;;19.15;9.60;;;10.40;99.90;;;;;;4181551;28;20812;-91
2022/09/21 01:36:23;;;;;;;16.25;9.25;;;10.40;99.90;;;;;;4164872;28;20203;-90
2022/09/21 01:38:29;;;;;;;14.15;7.90;;;10.40;99.90;;;;;;4164861;28;20196;-90
2022/09/21 01:40:38;;;;;;;14.38;8.65;;;10.30;99.90;;;;;;4164835;28;20179;-91
2022/09/21 01:42:42;;;;;;;19.58;8.70;;;10.30;99.90;;;;;;4164768;28;20171;-91
2022/09/21 01:44:44;;;;;;;16.30;8.82;;;10.30;99.90;;;;;;4164957;28;20165;-91
2022/09/21 01:46:47;;;;;;;11.93;7.95;;;10.30;99.90;;;;;;4164816;28;20172;-91
2022/09/21 01:48:53;;;;;;;16.70;8.15;;;10.30;99.90;;;;;;4164853;28;20184;-90
2022/09/21 01:50:56;;;;;;;14.60;8.18;;;10.30;99.90;;;;;;4164791;28;20188;-91
2022/09/21 01:53:46;;;;;;;17.60;8.32;;;10.20;99.90;;;;;;4165055;28;20168;-91
2022/09/21 01:55:52;;;;;;;14.93;7.88;;;10.10;99.90;;;;;;4188218;28;20199;-90
2022/09/21 01:58:05;;;;;;;15.32;8.43;;;10.20;99.90;;;;;;4167895;28;20636;-91
2022/09/21 02:00:07;;;;;;;17.23;8.27;;;10.20;99.90;;;;;;4181644;28;20171;-93
2022/09/21 02:02:35;;;;;;;15.13;8.00;;;10.30;99.90;;;;;;4165121;28;20202;-91
2022/09/21 02:04:37;;;;;;;17.38;9.07;;;10.40;99.90;;;;;;4138792;28;20185;-90
2022/09/21 02:06:42;;;;;;;16.85;8.82;;;10.20;99.90;;;;;;4148694;28;20204;-92
2022/09/21 02:08:43;;;;;;;14.85;8.80;;;10.20;99.90;;;;;;4164716;28;20227;-90
2022/09/21 02:10:50;;;;;;;14.75;9.30;;;10.30;99.90;;;;;;4148237;28;20180;-90
2022/09/21 02:13:00;;;;;;;12.77;8.70;;;10.20;99.90;;;;;;4164753;28;20168;-91
2022/09/21 02:15:02;;;;;;;13.23;8.75;;;10.30;99.90;;;;;;4164535;28;20180;-92
2022/09/21 02:17:34;;;;;;;16.80;9.00;;;10.30;99.90;;;;;;4164616;28;20172;-90
2022/09/21 02:19:47;;;;;;;15.85;8.55;;;10.30;99.90;;;;;;4184267;28;20257;-91
2022/09/21 02:22:06;;;;;;;12.05;8.48;;;10.30;99.90;;;;;;4167892;28;20183;-91
2022/09/21 02:24:30;;;;;;;15.65;8.82;;;10.30;99.90;;;;;;4167893;28;20262;-90
2022/09/21 02:26:48;;;;;;;10.52;7.53;;;10.30;99.90;;;;;;4168029;28;20176;-91
2022/09/21 02:29:10;;;;;;;13.13;8.95;;;10.20;99.90;;;;;;4167795;28;20548;-91
2022/09/21 02:31:30;;;;;;;13.40;8.55;;;10.10;99.90;;;;;;4167577;28;20266;-90
2022/09/21 02:33:39;;;;;;;13.77;8.38;;;10.00;99.90;;;;;;4167419;28;20163;-91
2022/09/21 02:36:00;;;;;;;18.73;8.40;;;10.00;99.90;;;;;;4167459;28;20219;-91
2022/09/21 02:38:18;;;;;;;14.68;8.13;;;9.90;99.90;;;;;;4167696;28;20184;-91
2022/09/21 02:40:32;;;;;;;10.25;7.38;;;9.90;99.90;;;;;;4167350;28;20627;-92
2022/09/21 02:42:38;;;;;;;11.60;7.22;;;9.90;99.90;;;;;;4167444;28;20266;-91
2022/09/21 02:44:55;;;;;;;9.98;7.65;;;9.90;99.90;;;;;;4167488;28;20200;-92
2022/09/21 02:47:06;;;;;;;11.85;7.75;;;10.00;99.90;;;;;;4167634;28;20242;-92
2022/09/21 02:49:13;;;;;;;10.65;6.70;;;9.80;99.90;;;;;;4167453;28;20203;-91
2022/09/21 02:51:24;;;;;;;10.38;7.65;;;9.80;99.90;;;;;;4167408;28;20172;-91
2022/09/21 02:53:29;;;;;;;15.98;8.80;;;9.80;99.90;;;;;;4167411;28;20214;-90
2022/09/21 02:55:32;;;;;;;11.80;9.13;;;9.80;99.90;;;;;;4167708;28;20196;-91
2022/09/21 02:57:34;;;;;;;12.80;9.40;;;9.90;99.90;;;;;;4167433;28;20271;-91
2022/09/21 02:59:34;;;;;;;15.93;9.02;;;9.90;99.90;;;;;;4167178;28;20192;-91
2022/09/21 03:01:38;;;;;;;15.10;9.18;;;10.00;99.90;;;;;;4150745;28;20272;-90
2022/09/21 03:03:38;;;;;;;16.08;9.25;;;10.00;99.90;;;;;;4167458;28;20176;-94
2022/09/21 03:05:39;;;;;;;16.60;9.13;;;9.90;99.90;;;;;;4167371;28;20168;-92
2022/09/21 03:07:40;;;;;;;18.30;9.55;;;10.00;99.90;;;;;;4150952;28;20223;-90
2022/09/21 03:09:41;;;;;;;13.18;8.65;;;10.00;99.90;;;;;;4167366;28;20188;-92
2022/09/21 03:11:42;;;;;;;21.35;8.73;;;10.10;99.90;;;;;;4167296;28;20168;-92
2022/09/21 03:13:43;;;;;;;15.45;8.77;;;10.00;99.90;;;;;;4167052;28;20648;-92
2022/09/21 03:15:44;;;;;;;17.33;9.18;;;10.00;99.90;;;;;;4166857;28;20693;-92
2022/09/21 03:17:45;;;;;;;14.48;8.57;;;10.00;99.90;;;;;;4167026;28;20632;-91
2022/09/21 03:19:46;;;;;;;16.98;8.75;;;10.00;99.90;;;;;;4150700;28;20193;-92
2022/09/21 03:21:46;;;;;;;15.20;8.60;;;10.00;99.90;;;;;;4166992;28;20207;-92
2022/09/21 03:23:47;;;;;;;15.55;9.23;;;10.00;99.90;;;;;;4150730;28;20267;-93
2022/09/21 03:25:48;;;;;;;18.63;8.73;;;10.00;99.90;;;;;;4150494;28;20208;-92
2022/09/21 03:27:52;;;;;;;16.08;8.45;;;10.00;99.90;;;;;;4150650;28;20576;-92
2022/09/21 03:29:53;;;;;;;15.98;9.05;;;10.10;99.90;;;;;;4165874;28;20223;-93
2022/09/21 03:31:54;;;;;;;15.25;9.00;;;10.10;99.90;;;;;;4166837;28;20172;-93
2022/09/21 03:33:55;;;;;;;12.90;9.00;;;10.20;99.90;;;;;;4166814;28;20211;-92
2022/09/21 03:35:56;;;;;;;16.65;9.75;;;10.20;99.90;;;;;;4166552;28;20200;-91
2022/09/21 03:37:57;;;;;;;15.80;8.27;;;10.20;99.90;;;;;;4150253;28;20524;-92
2022/09/21 03:39:59;;;;;;;14.68;8.85;;;10.20;99.90;;;;;;4166399;28;20192;-92
2022/09/21 03:41:59;;;;;;;12.35;7.97;;;10.10;99.90;;;;;;4150182;28;20628;-92
2022/09/21 03:44:00;;;;;;;14.48;7.15;;;10.00;99.90;;;;;;4183069;28;20168;-93
2022/09/21 03:46:01;;;;;;;13.23;7.90;;;9.90;99.90;;;;;;4149980;28;20185;-92
2022/09/21 03:48:03;;;;;;;11.05;7.57;;;9.90;99.90;;;;;;4183014;28;20175;-92
2022/09/21 03:50:07;;;;;;;9.63;7.40;;;9.70;99.90;;;;;;4166412;28;20202;-93
2022/09/21 03:52:08;;;;;;;13.77;7.47;;;9.60;99.90;;;;;;4166642;28;20275;-93
2022/09/21 03:54:09;;;;;;;14.07;7.05;;;9.50;99.90;;;;;;4166719;28;20615;-93
2022/09/21 03:56:09;;;;;;;11.27;7.00;;;9.50;99.90;;;;;;4166328;28;20664;-92
2022/09/21 03:58:10;;;;;;;10.30;7.22;;;9.50;99.90;;;;;;4166399;28;20342;-92
2022/09/21 04:00:11;;;;;;;9.73;6.85;;;9.50;99.90;;;;;;4149856;28;20373;-92
2022/09/21 04:02:12;;;;;;;10.57;6.65;;;9.60;99.90;;;;;;4166380;28;20641;-92
2022/09/21 04:04:13;;;;;;;6.95;5.72;;;9.70;99.90;;;;;;4166412;28;20176;-93
2022/09/21 04:06:14;;;;;;;13.43;7.65;;;9.70;99.90;;;;;;4166459;28;20173;-90
2022/09/21 04:08:14;;;;;;;9.73;7.38;;;9.70;99.90;;;;;;4150158;28;20177;-92
2022/09/21 04:10:18;;;;;;;8.75;6.82;;;9.80;99.90;;;;;;4166728;28;20175;-92
2022/09/21 04:12:22;;;;;;;11.05;7.13;;;9.80;99.90;;;;;;4168242;28;20661;-92
2022/09/21 04:14:22;;;;;;;9.80;7.30;;;9.80;99.90;;;;;;4172470;28;20601;-91
2022/09/21 04:16:24;;;;;;;12.93;7.65;;;9.90;99.90;;;;;;4172870;28;20220;-92
2022/09/21 04:18:25;;;;;;;12.52;8.75;;;9.90;99.90;;;;;;4166616;28;20192;-92
2022/09/21 04:20:25;;;;;;;15.43;8.70;;;9.90;99.90;;;;;;4149774;28;20511;-92
2022/09/21 04:22:26;;;;;;;13.40;9.00;;;9.90;99.90;;;;;;4149794;28;20177;-94
2022/09/21 04:24:27;;;;;;;16.20;9.77;;;9.90;99.90;;;;;;4166054;28;20176;-93
2022/09/21 04:26:31;;;;;;;20.30;10.68;;;10.00;99.90;;;;;;4149539;28;20247;-92
2022/09/21 04:28:32;;;;;;;15.48;9.70;;;10.00;99.90;;;;;;4165533;28;20184;-92
2022/09/21 04:30:33;;;;;;;13.55;9.48;;;10.00;99.90;;;;;;4166001;28;20180;-94
2022/09/21 04:32:34;;;;;;;14.85;9.02;;;10.00;99.90;;;;;;4165888;28;20188;-93
2022/09/21 04:34:36;;;;;;;18.48;9.48;;;10.00;99.90;;;;;;4165786;28;20172;-93
2022/09/21 04:36:36;;;;;;;18.10;10.50;;;9.90;99.90;;;;;;4149489;28;20216;-93
2022/09/21 04:38:37;;;;;;;19.02;11.20;;;9.70;99.90;;;;;;4165600;28;20552;-92
2022/09/21 04:40:38;;;;;;;25.30;11.77;;;9.60;99.90;;;;;;4149367;28;20177;-92
2022/09/21 04:42:38;;;;;;;20.33;13.45;;;9.60;99.90;;;;;;4149347;28;20169;-93
2022/09/21 04:44:39;;;;;;;20.35;12.90;;;9.70;99.90;;;;;;4165656;28;20203;-93
2022/09/21 04:46:41;;;;;;;18.67;11.88;;;9.90;99.90;;;;;;4149400;28;20181;-93
2022/09/21 04:48:42;;;;;;;18.25;10.85;;;10.00;99.90;;;;;;4165618;28;20235;-93
2022/09/21 04:50:43;;;;;;;16.85;10.63;;;10.00;99.90;;;;;;4182038;28;20183;-92
2022/09/21 04:52:44;;;;;;;22.75;9.45;;;10.10;99.90;;;;;;4148961;28;20204;-93
2022/09/21 04:54:45;;;;;;;16.30;8.23;;;10.20;99.90;;;;;;4165399;28;20251;-91
2022/09/21 04:56:47;;;;;;;16.50;8.75;;;10.00;99.90;;;;;;4165164;28;20211;-93
2022/09/21 04:58:47;;;;;;;7.80;6.30;;;9.90;99.90;;;;;;4165302;28;20549;-92
2022/09/21 05:00:52;;;;;;;12.40;7.47;;;9.70;99.90;;;;;;4165505;28;20180;-92
2022/09/21 05:02:53;;;;;;;15.88;8.20;;;9.70;99.90;;;;;;4165634;28;20548;-93
2022/09/21 05:04:53;;;;;;;14.85;8.25;;;9.50;99.90;;;;;;4165249;28;20168;-91
2022/09/21 05:06:56;;;;;;;13.63;8.48;;;9.30;99.90;;;;;;4165257;28;20255;-93
2022/09/21 05:11:17;;;;;;;13.98;8.32;;;9.40;99.90;;;;;;4165158;28;20171;-92
2022/09/21 05:13:18;;;;;;;92.35;11.30;;;9.80;99.90;;;;;;4181854;28;20179;-93
2022/09/21 05:15:20;;;;;;;17.95;9.00;;;9.50;99.90;;;;;;4148836;28;20176;-92
2022/09/21 05:17:22;;;;;;;19.83;8.80;;;9.30;99.90;;;;;;4148838;28;20173;-92
2022/09/21 05:19:22;;;;;;;16.13;9.10;;;9.10;99.90;;;;;;4165070;28;20224;-92
2022/09/21 05:21:23;;;;;;;15.95;8.35;;;9.00;99.90;;;;;;4165223;28;20579;-92
2022/09/21 05:23:25;;;;;;;18.80;9.87;;;9.00;99.90;;;;;;4165218;28;20172;-92
2022/09/21 05:25:26;;;;;;;34.88;9.98;;;9.00;99.90;;;;;;4165266;28;20203;-92
2022/09/21 05:27:27;;;;;;;47.90;10.23;;;9.00;99.90;;;;;;4164871;28;20535;-92
2022/09/21 05:29:28;;;;;;;30.45;12.05;;;9.00;99.90;;;;;;4148776;28;20278;-91
2022/09/21 05:31:36;;;;;;;18.23;10.45;;;8.90;99.90;;;;;;4165041;28;20178;-92
2022/09/21 05:33:43;;;;;;;44.33;10.97;;;8.80;99.90;;;;;;4165201;28;20168;-92
2022/09/21 05:35:57;;;;;;;15.40;9.90;;;8.90;99.90;;;;;;4164830;28;20211;-92
2022/09/21 05:38:10;;;;;;;12.88;9.05;;;8.80;99.90;;;;;;4165022;28;20188;-92
2022/09/21 05:40:11;;;;;;;18.03;9.83;;;8.80;99.90;;;;;;4165031;28;20187;-91
2022/09/21 05:42:12;;;;;;;15.80;9.73;;;8.80;99.90;;;;;;4181224;28;20186;-91
2022/09/21 05:44:14;;;;;;;17.63;10.35;;;8.90;99.90;;;;;;4148399;28;20189;-92
2022/09/21 05:46:40;;;;;;;15.27;9.25;;;9.10;99.90;;;;;;4165053;28;20199;-91
2022/09/21 05:48:50;;;;;;;13.30;9.63;;;9.10;99.90;;;;;;4179404;28;20214;-93
2022/09/21 05:51:10;;;;;;;13.23;8.37;;;9.20;99.90;;;;;;4164875;28;20655;-91
2022/09/21 05:53:49;;;;;;;15.77;9.15;;;9.30;99.90;;;;;;4180828;28;20182;-92
2022/09/21 05:56:03;;;;;;;13.15;8.45;;;9.40;99.90;;;;;;4164693;28;20277;-92
2022/09/21 05:58:22;;;;;;;15.27;8.80;;;9.40;99.90;;;;;;4181205;28;20260;-91
2022/09/21 06:00:24;;;;;;;17.55;8.50;;;9.50;99.90;;;;;;4164647;28;20214;-92
2022/09/21 06:02:43;;;;;;;15.82;9.32;;;9.50;99.90;;;;;;4164700;28;20172;-90
2022/09/21 06:04:46;;;;;;;16.27;10.07;;;9.50;99.90;;;;;;4181061;28;20241;-92
2022/09/21 06:06:46;;;;;;;15.43;9.13;;;9.50;99.90;;;;;;4164618;28;20215;-92
2022/09/21 06:08:47;;;;;;;18.80;9.07;;;9.70;99.90;;;;;;4164421;28;20287;-94
2022/09/21 06:10:48;;;;;;;12.40;9.00;;;9.80;99.90;;;;;;4164762;28;20633;-92
2022/09/21 06:12:48;;;;;;;20.40;9.68;;;9.90;99.90;;;;;;4148383;28;20239;-92
2022/09/21 06:14:49;;;;;;;22.23;9.82;;;10.00;99.90;;;;;;4148339;28;20204;-92
2022/09/21 06:16:51;;;;;;;226.00;12.15;;;10.10;99.90;;;;;;4148277;28;20685;-92
2022/09/21 06:18:51;;;;;;;38.05;9.60;;;10.20;99.90;;;;;;4164783;28;20192;-91
2022/09/21 06:20:52;;;;;;;62.67;10.15;;;10.30;99.90;;;;;;4148582;28;20238;-92
2022/09/21 06:23:02;;;;;;;50.13;10.10;;;10.20;99.90;;;;;;4164690;28;20168;-91
2022/09/21 06:25:03;;;;;;;25.52;8.55;;;10.20;99.90;;;;;;4164682;28;20171;-93
2022/09/21 06:27:04;;;;;;;21.05;9.63;;;10.30;99.90;;;;;;4164621;28;20265;-92
2022/09/21 06:29:05;;;;;;;20.00;9.95;;;10.30;99.90;;;;;;4149239;28;20195;-92
2022/09/21 06:31:05;;;;;;;16.02;9.07;;;10.40;99.90;;;;;;4186410;28;20175;-92
2022/09/21 06:33:06;;;;;;;16.85;8.32;;;10.40;99.90;;;;;;4184894;28;20164;-91
2022/09/21 06:35:07;;;;;;;31.17;9.50;;;10.60;99.90;;;;;;4184440;28;20247;-93
2022/09/21 06:37:08;;;;;;;41.50;11.05;;;10.50;99.90;;;;;;4148431;28;20181;-92
2022/09/21 06:39:09;;;;;;;63.30;11.15;;;10.60;99.90;;;;;;4164575;28;20242;-93
2022/09/21 06:41:10;;;;;;;90.05;10.18;;;10.70;99.90;;;;;;4164590;28;20258;-93
2022/09/21 06:43:10;;;;;;;64.03;10.85;;;10.70;99.90;;;;;;4164530;28;20644;-93
2022/09/21 06:45:11;;;;;;;56.40;10.73;;;10.80;99.90;;;;;;4148048;28;20210;-92
2022/09/21 06:47:12;;;;;;;37.10;9.98;;;10.80;99.90;;;;;;4164694;28;20168;-91
2022/09/21 06:49:12;;;;;;;53.03;10.45;;;10.90;99.90;;;;;;4148035;28;20280;-92
2022/09/21 06:51:13;;;;;;;59.05;9.40;;;11.20;99.90;;;;;;4164232;28;20226;-93
2022/09/21 06:53:15;;;;;;;13.73;8.10;;;11.80;99.90;;;;;;4148246;28;20178;-92
2022/09/21 06:55:15;;;;;;;14.18;8.18;;;12.90;99.90;;;;;;4164158;28;20745;-92
2022/09/21 06:57:16;;;;;;;10.73;6.95;;;14.40;99.90;;;;;;4164298;28;20176;-92
2022/09/21 06:59:17;;;;;;;15.15;6.80;;;16.00;99.90;;;;;;4164251;28;20189;-92
2022/09/21 07:01:18;;;;;;;8.48;5.90;;;17.30;99.90;;;;;;4164387;28;20181;-92
2022/09/21 07:03:19;;;;;;;8.55;5.60;;;18.20;99.90;;;;;;4164084;28;20211;-93
2022/09/21 07:05:20;;;;;;;13.15;5.72;;;18.40;99.90;;;;;;4166037;28;20176;-93
2022/09/21 07:07:20;;;;;;;13.27;6.68;;;18.40;99.90;;;;;;4150800;28;20197;-94
2022/09/21 07:09:21;;;;;;;8.85;6.07;;;18.70;99.90;;;;;;4150240;28;20207;-93
2022/09/21 07:11:22;;;;;;;8.38;5.70;;;19.00;99.90;;;;;;4167191;28;20172;-92
2022/09/21 07:13:24;;;;;;;9.15;5.70;;;19.00;99.90;;;;;;4167061;28;20678;-92
2022/09/21 07:15:28;;;;;;;10.25;6.07;;;18.50;99.90;;;;;;4166934;28;20183;-94
2022/09/21 07:17:37;;;;;;;12.85;6.65;;;18.80;99.90;;;;;;4167124;28;20182;-93
2022/09/21 07:19:38;;;;;;;14.27;6.55;;;19.20;99.90;;;;;;4166982;28;20607;-93
2022/09/21 07:21:39;;;;;;;16.75;5.97;;;19.70;99.90;;;;;;4167231;28;20176;-95
2022/09/21 07:23:39;;;;;;;9.38;5.53;;;19.90;99.90;;;;;;4150568;28;20168;-93
2022/09/21 07:25:41;;;;;;;10.85;5.90;;;20.40;99.90;;;;;;4150677;28;20243;-95
2022/09/21 07:27:42;;;;;;;10.18;5.90;;;20.70;99.90;;;;;;4183467;28;20225;-91
2022/09/21 07:29:42;;;;;;;12.10;6.15;;;20.90;99.90;;;;;;4166610;28;20200;-94
2022/09/21 07:31:43;;;;;;;8.43;6.50;;;21.30;99.90;;;;;;4150537;28;20173;-95
2022/09/21 07:33:47;;;;;;;11.85;6.50;;;21.60;99.90;;;;;;4183319;28;20190;-93
2022/09/21 07:35:53;;;;;;;12.48;6.40;;;21.80;99.90;;;;;;4150170;28;20713;-94
2022/09/21 07:37:59;;;;;;;11.38;6.15;;;21.90;99.90;;;;;;4166356;28;20176;-93
2022/09/21 07:40:04;;;;;;;9.35;5.50;;;22.30;99.90;;;;;;4166455;28;20196;-92
2022/09/21 07:42:05;;;;;;;10.00;6.07;;;22.50;99.90;;;;;;4166446;28;20168;-93
2022/09/21 07:44:06;;;;;;;12.10;6.80;;;23.00;99.90;;;;;;4166575;28;20251;-93
2022/09/21 07:46:09;;;;;;;39.58;7.95;;;22.80;99.90;;;;;;4166686;28;20183;-93
2022/09/21 07:48:10;;;;;;;24.75;7.20;;;22.90;99.90;;;;;;4150162;28;20215;-93
2022/09/21 07:50:11;;;;;;;21.83;7.72;;;22.60;99.90;;;;;;4150179;28;20173;-92
2022/09/21 07:52:11;;;;;;;18.50;7.45;;;22.30;99.90;;;;;;4150023;28;20184;-92
2022/09/21 07:54:14;;;;;;;35.05;8.65;;;22.60;99.90;;;;;;4149988;28;20184;-92
2022/09/21 07:56:16;;;;;;;61.95;9.35;;;22.70;99.90;;;;;;4166373;28;20239;-93
2022/09/21 08:00:36;;;;;;;15.38;8.10;;;22.60;99.90;;;;;;4182672;28;20186;-93
2022/09/21 08:02:37;;;;;;;11.02;6.93;;;23.00;99.90;;;;;;4183033;28;20186;-93
2022/09/21 08:04:38;;;;;;;8.00;6.70;;;23.30;99.90;;;;;;4150116;28;20172;-93
2022/09/21 08:06:39;;;;;;;10.30;7.00;;;23.70;99.90;;;;;;4166237;28;20200;-94
2022/09/21 08:08:40;;;;;;;10.32;6.75;;;23.70;99.90;;;;;;4149838;28;20189;-93
2022/09/21 08:10:41;;;;;;;9.38;6.53;;;23.30;99.90;;;;;;4166284;28;20172;-93
2022/09/21 08:12:43;;;;;;;13.00;7.22;;;23.50;99.90;;;;;;4166142;28;20510;-93
2022/09/21 08:14:43;;;;;;;13.13;6.97;;;23.40;99.90;;;;;;4165945;28;20263;-94
2022/09/21 08:16:46;;;;;;;15.95;6.65;;;23.90;99.90;;;;;;4165617;28;20216;-93
2022/09/21 08:18:46;;;;;;;9.60;6.85;;;24.00;99.90;;;;;;4166055;28;20572;-92
2022/09/21 08:20:53;;;;;;;20.27;7.15;;;24.10;99.90;;;;;;4166207;28;20180;-93
2022/09/21 08:22:54;;;;;;;12.30;6.88;;;23.70;99.90;;;;;;4166146;28;20168;-94
2022/09/21 08:24:55;;;;;;;11.77;7.40;;;23.80;99.90;;;;;;4182314;28;20187;-96
2022/09/21 08:26:56;;;;;;;10.27;6.78;;;24.00;99.90;;;;;;4165940;28;20172;-94
2022/09/21 08:28:57;;;;;;;16.02;6.90;;;23.20;99.90;;;;;;4149485;28;20185;-93
2022/09/21 08:30:59;;;;;;;11.05;6.85;;;23.20;99.90;;;;;;4149636;28;20172;-93
2022/09/21 08:33:00;;;;;;;13.45;6.55;;;23.50;99.90;;;;;;4149568;28;20173;-92
2022/09/21 08:35:01;;;;;;;11.43;7.68;;;22.30;99.90;;;;;;4166120;28;20187;-93
2022/09/21 08:37:01;;;;;;;14.93;7.88;;;23.50;99.90;;;;;;4149379;28;20279;-93
2022/09/21 08:39:06;;;;;;;12.88;6.88;;;24.30;99.90;;;;;;4182060;28;20191;-94
2022/09/21 08:41:29;;;;;;;12.25;7.20;;;24.40;99.90;;;;;;4165786;28;20168;-92
2022/09/21 08:43:48;;;;;;;13.23;7.20;;;24.70;99.90;;;;;;4182117;28;20178;-94
2022/09/21 08:45:48;;;;;;;9.63;7.00;;;25.20;99.90;;;;;;4165773;28;20656;-93
2022/09/21 08:47:54;;;;;;;13.23;7.18;;;25.00;99.90;;;;;;4149237;28;20207;-94
2022/09/21 08:49:58;;;;;;;12.93;7.13;;;24.60;99.90;;;;;;4149262;28;20615;-94
2022/09/21 08:52:03;;;;;;;11.90;6.72;;;25.10;99.90;;;;;;4165616;28;20176;-93
2022/09/21 08:54:31;;;;;;;10.90;6.15;;;25.30;99.90;;;;;;4181895;28;20209;-94
2022/09/21 08:56:33;;;;;;;15.70;6.57;;;25.10;99.90;;;;;;4177882;28;20722;-93
2022/09/21 08:58:39;;;;;;;14.27;6.22;;;24.20;99.90;;;;;;4166132;28;20198;-93
2022/09/21 09:00:41;;;;;;;13.55;6.28;;;23.50;99.90;;;;;;4165583;28;20180;-95
2022/09/21 09:03:00;;;;;;;9.38;4.97;;;23.90;99.90;;;;;;4165629;28;20175;-93
2022/09/21 09:05:22;;;;;;;10.40;5.00;;;24.60;99.90;;;;;;4165210;28;20271;-93
2022/09/21 09:08:00;;;;;;;10.80;5.80;;;25.10;99.90;;;;;;4145528;28;20181;-94
2022/09/21 09:10:32;;;;;;;11.02;5.28;;;24.50;99.90;;;;;;4181715;28;20203;-92
2022/09/21 09:12:49;;;;;;;13.35;4.85;;;24.00;99.90;;;;;;4164990;28;20172;-94
2022/09/21 09:15:05;;;;;;;10.95;5.00;;;24.10;99.90;;;;;;4181659;28;20183;-94
2022/09/21 09:17:18;;;;;;;9.45;4.20;;;23.50;99.90;;;;;;4165382;28;20216;-94
2022/09/21 09:19:23;;;;;;;11.82;3.15;;;23.40;99.90;;;;;;4165150;28;20196;-94
2022/09/21 09:21:41;;;;;;;8.73;4.20;;;22.20;99.90;;;;;;4165125;28;20176;-94
2022/09/21 09:23:52;;;;;;;13.07;4.35;;;22.10;99.90;;;;;;4165119;28;20180;-93
2022/09/21 09:25:58;;;;;;;7.82;4.10;;;23.10;99.90;;;;;;4165229;28;20176;-94
2022/09/21 09:28:03;;;;;;;10.95;3.17;;;23.10;99.90;;;;;;4164590;28;20180;-93
2022/09/21 09:30:18;;;;;;;7.22;1.40;;;22.70;99.90;;;;;;4165149;28;20631;-93
2022/09/21 09:32:22;;;;;;;8.27;2.50;;;23.20;99.90;;;;;;4182472;28;20171;-93
2022/09/21 09:34:36;;;;;;;7.03;3.28;;;23.80;99.90;;;;;;4167599;28;20176;-92
2022/09/21 09:36:43;;;;;;;12.25;4.68;;;23.60;99.90;;;;;;4181601;28;20195;-94
2022/09/21 09:38:54;;;;;;;9.73;4.20;;;23.90;99.90;;;;;;4181746;28;20223;-94
2022/09/21 09:41:02;;;;;;;8.73;3.88;;;23.50;99.90;;;;;;4165371;28;20192;-94
2022/09/21 09:43:14;;;;;;;11.80;4.57;;;22.60;99.90;;;;;;4181734;28;20175;-93
2022/09/21 09:45:30;;;;;;;10.63;4.22;;;23.10;99.90;;;;;;4164869;28;20172;-91
2022/09/21 09:47:44;;;;;;;13.73;4.00;;;22.70;99.90;;;;;;4148759;28;20208;-92
2022/09/21 09:50:05;;;;;;;7.30;4.07;;;22.30;99.90;;;;;;4182015;28;20206;-93
2022/09/21 09:52:11;;;;;;;10.05;4.00;;;22.60;99.90;;;;;;4164703;28;20250;-93
2022/09/21 09:54:16;;;;;;;15.23;4.10;;;21.10;99.90;;;;;;4164861;28;20171;-94
2022/09/21 09:56:17;;;;;;;14.23;4.95;;;20.40;99.90;;;;;;4181047;28;20217;-93
2022/09/21 09:58:45;;;;;;;9.38;4.03;;;20.40;99.90;;;;;;4164611;28;20172;-91
2022/09/21 10:00:49;;;;;;;11.82;4.15;;;20.20;99.90;;;;;;4160518;28;20543;-92
2022/09/21 10:02:53;;;;;;;15.88;4.38;;;19.40;99.90;;;;;;4164881;28;20186;-92
2022/09/21 10:05:15;;;;;;;12.50;4.80;;;19.30;99.90;;;;;;4164905;28;20180;-91
2022/09/21 10:07:18;;;;;;;11.60;5.10;;;19.00;99.90;;;;;;4181413;28;20178;-91
2022/09/21 10:09:25;;;;;;;13.07;4.60;;;19.30;99.90;;;;;;4164762;28;20722;-92
2022/09/21 10:11:36;;;;;;;13.93;4.55;;;19.10;99.90;;;;;;4181270;28;20167;-91
2022/09/21 10:13:40;;;;;;;12.50;3.78;;;19.00;99.90;;;;;;4165113;28;20171;-91
2022/09/21 10:15:55;;;;;;;7.80;4.20;;;19.10;99.90;;;;;;4165170;28;20196;-93
2022/09/21 10:18:19;;;;;;;10.05;3.75;;;18.70;99.90;;;;;;4181802;28;20755;-92
2022/09/21 10:20:19;;;;;;;13.27;4.63;;;18.50;99.90;;;;;;4164939;28;20168;-89
2022/09/21 10:22:21;;;;;;;9.93;3.75;;;18.50;99.90;;;;;;4164687;28;20173;-91
2022/09/21 10:24:32;;;;;;;10.10;3.47;;;18.50;99.90;;;;;;4164758;28;20169;-91
2022/09/21 10:26:48;;;;;;;6.90;2.22;;;18.60;99.90;;;;;;4181367;28;20571;-93
2022/09/21 10:28:58;;;;;;;8.60;2.17;;;18.60;99.90;;;;;;4180945;28;20610;-92
2022/09/21 10:31:17;;;;;;;8.13;1.80;;;18.30;99.90;;;;;;4164699;28;20608;-92
2022/09/21 10:33:21;;;;;;;9.98;1.73;;;18.30;99.90;;;;;;4164871;28;20176;-92
2022/09/21 10:35:21;;;;;;;5.78;2.00;;;18.20;99.90;;;;;;4164542;28;20263;-90
2022/09/21 10:37:28;;;;;;;5.57;1.73;;;18.10;99.90;;;;;;4164608;28;20181;-92
2022/09/21 10:39:31;;;;;;;7.88;1.50;;;17.90;99.90;;;;;;4166191;28;20294;-92
2022/09/21 10:41:32;;;;;;;10.38;1.80;;;17.90;99.90;;;;;;4167468;28;20176;-92
2022/09/21 10:43:39;;;;;;;5.65;1.60;;;17.70;99.90;;;;;;4167770;28;20169;-92
2022/09/21 10:45:52;;;;;;;8.10;1.55;;;17.60;99.90;;;;;;4166505;28;20191;-91
2022/09/21 10:48:12;;;;;;;8.57;1.50;;;17.50;99.90;;;;;;4167717;28;20195;-92
2022/09/21 10:50:21;;;;;;;7.68;1.60;;;17.40;99.90;;;;;;4167465;28;20183;-92
2022/09/21 10:52:41;;;;;;;9.50;1.75;;;17.40;99.90;;;;;;4134649;28;20248;-92
2022/09/21 10:54:42;;;;;;;7.75;1.50;;;17.60;99.90;;;;;;4150893;28;20196;-93